Time;durP1;ratioP1;P1;durP2;ratioP2;P2;SDS_P1;SDS_P2;PMS_P1;PMS_P2;Temp;Humidity;BMP_temperature;BMP_pressure;BME280_temperature;BME280_humidity;BME280_pressure;Samples;Min_cycle;Max_cycle;Signal;HPM_P1;HPM_P2
2019/11/23 00:00:06;;;;;;;3.3;1.7;;;;;;;;;;;;;
2019/11/23 00:02:37;;;;;;;5.8;3.1;;;;;;;;;;;;;
2019/11/23 00:04:58;;;;;;;5.8;2.9;;;;;;;;;;;;;
2019/11/23 00:07:25;;;;;;;2.6;2;;;;;;;;;;;;;
2019/11/23 00:09:50;;;;;;;2.7;1.8;;;;;;;;;;;;;
2019/11/23 00:12:37;;;;;;;2.6;1.6;;;;;;;;;;;;;
2019/11/23 00:14:42;;;;;;;4.5;2.3;;;;;;;;;;;;;
2019/11/23 00:17:05;;;;;;;3.4;1.7;;;;;;;;;;;;;
2019/11/23 00:19:31;;;;;;;5.1;2.6;;;;;;;;;;;;;
2019/11/23 00:21:57;;;;;;;7.2;3.1;;;;;;;;;;;;;
2019/11/23 00:24:22;;;;;;;7.4;3;;;;;;;;;;;;;
2019/11/23 00:26:48;;;;;;;2.5;1.6;;;;;;;;;;;;;
2019/11/23 00:29:13;;;;;;;2.5;1.6;;;;;;;;;;;;;
2019/11/23 00:31:43;;;;;;;1.9;1.4;;;;;;;;;;;;;
2019/11/23 00:34:07;;;;;;;3.5;1.8;;;;;;;;;;;;;
2019/11/23 00:36:35;;;;;;;3.2;2;;;;;;;;;;;;;
2019/11/23 00:39:08;;;;;;;3.8;2.2;;;;;;;;;;;;;
2019/11/23 00:42:12;;;;;;;3.8;2.2;;;;;;;;;;;;;
2019/11/23 00:43:53;;;;;;;2.5;1.8;;;;;;;;;;;;;
2019/11/23 00:46:18;;;;;;;2.4;1.5;;;;;;;;;;;;;
2019/11/23 00:48:44;;;;;;;2.5;1.6;;;;;;;;;;;;;
2019/11/23 00:51:13;;;;;;;2.9;1.6;;;;;;;;;;;;;
2019/11/23 00:53:35;;;;;;;2.7;1.7;;;;;;;;;;;;;
2019/11/23 00:56:01;;;;;;;3.1;1.7;;;;;;;;;;;;;
2019/11/23 00:58:29;;;;;;;3.1;1.3;;;;;;;;;;;;;
2019/11/23 01:00:55;;;;;;;2.2;1.3;;;;;;;;;;;;;
2019/11/23 01:03:19;;;;;;;2.4;1.5;;;;;;;;;;;;;
2019/11/23 01:05:42;;;;;;;2.6;1.5;;;;;;;;;;;;;
2019/11/23 01:08:19;;;;;;;3;1.5;;;;;;;;;;;;;
2019/11/23 01:11:20;;;;;;;2.9;1.4;;;;;;;;;;;;;
2019/11/23 01:13:37;;;;;;;1.7;1.3;;;;;;;;;;;;;
2019/11/23 01:16:02;;;;;;;2.6;1.1;;;;;;;;;;;;;
2019/11/23 01:18:27;;;;;;;1.2;0.8;;;;;;;;;;;;;
2019/11/23 01:20:52;;;;;;;2;1.2;;;;;;;;;;;;;
2019/11/23 01:23:16;;;;;;;1.7;1;;;;;;;;;;;;;
2019/11/23 01:25:44;;;;;;;1.6;0.9;;;;;;;;;;;;;
2019/11/23 01:28:08;;;;;;;1.1;0.9;;;;;;;;;;;;;
2019/11/23 01:30:34;;;;;;;2.4;1.3;;;;;;;;;;;;;
2019/11/23 01:32:59;;;;;;;2.3;1.1;;;;;;;;;;;;;
2019/11/23 01:35:25;;;;;;;1.7;1.1;;;;;;;;;;;;;
2019/11/23 01:37:50;;;;;;;1.5;1;;;;;;;;;;;;;
2019/11/23 01:40:14;;;;;;;1.5;0.9;;;;;;;;;;;;;
2019/11/23 01:42:43;;;;;;;1.7;1;;;;;;;;;;;;;
2019/11/23 01:45:05;;;;;;;1.7;1;;;;;;;;;;;;;
2019/11/23 01:47:32;;;;;;;1.2;1;;;;;;;;;;;;;
2019/11/23 01:54:45;;;;;;;1.8;1;;;;;;;;;;;;;
2019/11/23 01:57:11;;;;;;;1.5;0.9;;;;;;;;;;;;;
2019/11/23 01:59:40;;;;;;;1.7;1.3;;;;;;;;;;;;;
2019/11/23 02:02:05;;;;;;;1.8;1.1;;;;;;;;;;;;;
2019/11/23 02:04:29;;;;;;;1.4;1.1;;;;;;;;;;;;;
2019/11/23 02:06:55;;;;;;;1.2;1;;;;;;;;;;;;;
2019/11/23 02:09:25;;;;;;;2.3;1;;;;;;;;;;;;;
2019/11/23 02:11:45;;;;;;;1.4;0.9;;;;;;;;;;;;;
2019/11/23 02:14:10;;;;;;;2.3;1;;;;;;;;;;;;;
2019/11/23 02:16:36;;;;;;;2.4;1.3;;;;;;;;;;;;;
2019/11/23 02:19:00;;;;;;;1.7;1.1;;;;;;;;;;;;;
2019/11/23 02:21:27;;;;;;;1.5;0.9;;;;;;;;;;;;;
2019/11/23 02:23:52;;;;;;;0.9;0.6;;;;;;;;;;;;;
2019/11/23 02:26:17;;;;;;;0.8;0.6;;;;;;;;;;;;;
2019/11/23 02:28:44;;;;;;;2;0.9;;;;;;;;;;;;;
2019/11/23 02:31:09;;;;;;;0.8;0.7;;;;;;;;;;;;;
2019/11/23 02:33:34;;;;;;;1.4;0.8;;;;;;;;;;;;;
2019/11/23 02:36:00;;;;;;;1;0.8;;;;;;;;;;;;;
2019/11/23 02:38:26;;;;;;;0.9;0.8;;;;;;;;;;;;;
2019/11/23 02:40:50;;;;;;;2.4;1.3;;;;;;;;;;;;;
2019/11/23 02:43:15;;;;;;;1.6;1.1;;;;;;;;;;;;;
2019/11/23 02:45:42;;;;;;;1.4;1.1;;;;;;;;;;;;;
2019/11/23 02:48:09;;;;;;;1.5;0.9;;;;;;;;;;;;;
2019/11/23 02:50:34;;;;;;;1.2;0.9;;;;;;;;;;;;;
2019/11/23 02:53:21;;;;;;;0.9;0.8;;;;;;;;;;;;;
2019/11/23 02:57:47;;;;;;;1.7;0.9;;;;;;;;;;;;;
2019/11/23 03:00:10;;;;;;;1.2;0.7;;;;;;;;;;;;;
2019/11/23 03:02:37;;;;;;;1.8;0.7;;;;;;;;;;;;;
2019/11/23 03:05:01;;;;;;;0.9;0.7;;;;;;;;;;;;;
2019/11/23 03:07:28;;;;;;;1;0.7;;;;;;;;;;;;;
2019/11/23 03:09:53;;;;;;;1.5;0.9;;;;;;;;;;;;;
2019/11/23 03:12:18;;;;;;;0.9;0.6;;;;;;;;;;;;;
2019/11/23 03:14:42;;;;;;;1.4;0.7;;;;;;;;;;;;;
2019/11/23 03:17:09;;;;;;;0.7;0.5;;;;;;;;;;;;;
2019/11/23 03:19:33;;;;;;;0.7;0.5;;;;;;;;;;;;;
2019/11/23 03:21:59;;;;;;;0.7;0.5;;;;;;;;;;;;;
2019/11/23 03:24:40;;;;;;;0.9;0.5;;;;;;;;;;;;;
2019/11/23 03:26:48;;;;;;;0.8;0.5;;;;;;;;;;;;;
2019/11/23 03:29:14;;;;;;;0.9;0.5;;;;;;;;;;;;;
2019/11/23 03:31:39;;;;;;;1;0.6;;;;;;;;;;;;;
2019/11/23 03:34:03;;;;;;;1.4;0.9;;;;;;;;;;;;;
2019/11/23 03:36:30;;;;;;;1.2;0.8;;;;;;;;;;;;;
2019/11/23 03:38:54;;;;;;;1.2;0.8;;;;;;;;;;;;;
2019/11/23 03:41:19;;;;;;;1.1;0.8;;;;;;;;;;;;;
2019/11/23 03:43:44;;;;;;;0.9;0.8;;;;;;;;;;;;;
2019/11/23 03:46:09;;;;;;;1.3;0.9;;;;;;;;;;;;;
2019/11/23 03:48:40;;;;;;;1.2;0.8;;;;;;;;;;;;;
2019/11/23 03:51:04;;;;;;;1.3;0.8;;;;;;;;;;;;;
2019/11/23 03:53:32;;;;;;;1;0.8;;;;;;;;;;;;;
2019/11/23 03:55:54;;;;;;;2.5;0.9;;;;;;;;;;;;;
2019/11/23 03:58:22;;;;;;;1.5;0.8;;;;;;;;;;;;;
2019/11/23 04:02:46;;;;;;;2.2;1.4;;;;;;;5.82;74.11621;923.123;;;;
2019/11/23 04:05:08;;;;;;;1.7;1.2;;;;;;;5.83;74.23145;923.0084;;;;
2019/11/23 04:07:31;;;;;;;2.4;1.3;;;;;;;5.84;74.42578;923.0345;;;;
2019/11/23 04:10:01;;;;;;;3.1;1.9;;;;;;;5.87;74.67773;923.0156;;;;
2019/11/23 04:12:26;;;;;;;3.3;1.8;;;;;;;5.78;74.4043;922.9836;;;;
2019/11/23 04:14:57;;;;;;;2.4;1.5;;;;;;;5.55;75.78516;922.97;;;;
2019/11/23 04:17:21;;;;;;;3.4;1.3;;;;;;;5.52;76.09668;922.9099;;;;
2019/11/23 04:19:52;;;;;;;1.1;0.9;;;;;;;5.17;77.4541;923.1116;;;;
2019/11/23 04:22:23;;;;;;;1.5;1.1;;;;;;;5.22;77.33887;923.0489;;;;
2019/11/23 04:24:49;;;;;;;1.5;1.1;;;;;;;5.28;77.31738;922.9451;;;;
2019/11/23 04:27:09;;;;;;;3;1.4;;;;;;;5.39;77.64063;922.9835;;;;
2019/11/23 04:30:15;;;;;;;1.9;1.2;;;;;;;5.41;77.00195;922.9593;;;;
2019/11/23 04:32:41;;;;;;;2.1;1.2;;;;;;;5.47;77.01367;922.894;;;;
2019/11/23 04:35:05;;;;;;;1.8;1.1;;;;;;;5.46;76.80859;922.8956;;;;
2019/11/23 04:37:36;;;;;;;1.9;1.2;;;;;;;5.42;77.13965;923.0098;;;;
2019/11/23 04:40:01;;;;;;;2;1.2;;;;;;;5.4;77.03418;922.8872;;;;
2019/11/23 04:42:33;;;;;;;2.6;1.2;;;;;;;5.48;76.92285;922.9311;;;;
2019/11/23 04:44:59;;;;;;;2.3;1.5;;;;;;;5.43;77.1748;922.7628;;;;
2019/11/23 04:47:26;;;;;;;2.7;1.5;;;;;;;5.44;76.81543;922.8624;;;;
2019/11/23 04:50:01;;;;;;;2.1;1.4;;;;;;;5.47;76.91016;922.8695;;;;
2019/11/23 04:52:28;;;;;;;2.3;1.5;;;;;;;5.37;77.20801;922.7813;;;;
2019/11/23 04:54:54;;;;;;;2.5;1.4;;;;;;;5.23;77.58984;922.7452;;;;
2019/11/23 04:57:26;;;;;;;2.9;1.5;;;;;;;5.25;77.44531;922.6135;;;;
2019/11/23 05:05:14;;;;;;;2.8;1.3;;;;;;;5.26;77.23438;922.642;;;;
2019/11/23 05:07:20;;;;;;;4.6;3.4;;;;;;;5.14;77.77441;922.7643;;;;
2019/11/23 05:09:48;;;;;;;4.7;2.8;;;;;;;5.01;78.54297;922.5958;;;;
2019/11/23 05:12:15;;;;;;;3.3;2;;;;;;;4.96;78.80176;922.7379;;;;
2019/11/23 05:14:44;;;;;;;3.6;2.4;;;;;;;4.98;78.93066;922.6505;;;;
2019/11/23 05:17:10;;;;;;;3;2.2;;;;;;;5.1;78.35645;922.6245;;;;
2019/11/23 05:19:44;;;;;;;3.5;2.6;;;;;;;5.11;78.32227;922.7335;;;;
2019/11/23 05:22:10;;;;;;;3.3;2.6;;;;;;;5.09;78.6123;922.6481;;;;
2019/11/23 05:24:35;;;;;;;4;2;;;;;;;5.06;78.53809;922.5865;;;;
2019/11/23 05:27:03;;;;;;;3.7;2.8;;;;;;;5.04;78.57031;922.5927;;;;
2019/11/23 05:29:32;;;;;;;3.2;2.1;;;;;;;4.82;79.4541;922.5787;;;;
2019/11/23 05:32:03;;;;;;;3.5;2.3;;;;;;;4.88;79.1709;922.4931;;;;
2019/11/23 05:34:26;;;;;;;2.7;1.9;;;;;;;4.98;79.16699;922.5117;;;;
2019/11/23 05:37:04;;;;;;;3.1;1.7;;;;;;;4.98;78.95313;922.4802;;;;
2019/11/23 05:39:27;;;;;;;4.2;2.1;;;;;;;4.96;78.89355;922.428;;;;
2019/11/23 05:41:58;;;;;;;4.7;3.1;;;;;;;4.92;79.60645;922.4348;;;;
2019/11/23 05:44:28;;;;;;;7.5;3.8;;;;;;;4.89;79.28711;922.397;;;;
2019/11/23 05:46:52;;;;;;;8.6;5.7;;;;;;;4.99;78.99805;922.2744;;;;
2019/11/23 05:49:23;;;;;;;9.9;5.8;;;;;;;4.8;79.5957;922.3401;;;;
2019/11/23 05:51:55;;;;;;;7.6;5.2;;;;;;;4.57;80.46582;922.3546;;;;
2019/11/23 05:54:24;;;;;;;7;4.7;;;;;;;4.79;79.8418;922.2731;;;;
2019/11/23 05:57:04;;;;;;;4.8;3.4;;;;;;;4.84;79.33203;922.2784;;;;
2019/11/23 06:01:40;;;;;;;4.3;3;;;;;;;4.72;80.17871;922.1696;;;;
2019/11/23 06:04:04;;;;;;;6.1;3.3;;;;;;;4.75;80.66895;922.1626;;;;
2019/11/23 06:06:32;;;;;;;3.8;3;;;;;;;4.83;79.66797;922.168;;;;
2019/11/23 06:09:03;;;;;;;5.4;4;;;;;;;4.83;80.03027;922.198;;;;
2019/11/23 06:11:28;;;;;;;6.1;4.4;;;;;;;4.76;80.17285;922.187;;;;
2019/11/23 06:14:04;;;;;;;5.5;4.3;;;;;;;4.85;79.74121;922.2595;;;;
2019/11/23 06:16:22;;;;;;;5;4.1;;;;;;;4.9;79.41113;922.1076;;;;
2019/11/23 06:18:48;;;;;;;6;4.6;;;;;;;4.88;79.41895;922.158;;;;
2019/11/23 06:21:13;;;;;;;5.8;4.9;;;;;;;4.84;79.8291;922.2311;;;;
2019/11/23 06:23:42;;;;;;;8.9;5.7;;;;;;;4.7;80.15137;922.1395;;;;
2019/11/23 06:26:07;;;;;;;6.5;5.2;;;;;;;4.61;80.42676;922.087;;;;
2019/11/23 06:28:32;;;;;;;7.8;5.8;;;;;;;4.74;79.90039;922.0451;;;;
2019/11/23 06:31:00;;;;;;;7.3;5.1;;;;;;;4.83;80.29883;922.1956;;;;
2019/11/23 06:33:27;;;;;;;5.7;4.7;;;;;;;4.88;79.38477;922.1691;;;;
2019/11/23 06:36:00;;;;;;;5.8;4.6;;;;;;;4.8;79.60645;922.1494;;;;
2019/11/23 06:38:37;;;;;;;4;3.4;;;;;;;4.57;80.52148;922.0463;;;;
2019/11/23 06:41:03;;;;;;;3.7;3.1;;;;;;;4.52;80.81543;922.0405;;;;
2019/11/23 06:43:35;;;;;;;5.4;3.7;;;;;;;4.28;82.1875;921.89;;;;
2019/11/23 06:46:05;;;;;;;4.6;3.5;;;;;;;4.41;81.80762;922.0383;;;;
2019/11/23 06:48:29;;;;;;;5.6;3.9;;;;;;;4.49;81.26074;921.96;;;;
2019/11/23 06:51:03;;;;;;;6.6;4;;;;;;;4.67;80.52734;921.8753;;;;
2019/11/23 06:53:32;;;;;;;5.6;3.8;;;;;;;4.71;80.13086;921.9969;;;;
2019/11/23 06:56:12;;;;;;;5.4;3.7;;;;;;;4.75;80.03809;921.7755;;;;
2019/11/23 06:58:39;;;;;;;6.4;4;;;;;;;4.81;79.92188;921.9606;;;;
2019/11/23 07:01:16;;;;;;;6;4.4;;;;;;;4.82;79.52148;921.8881;;;;
2019/11/23 07:03:42;;;;;;;5.3;4;;;;;;;4.79;79.46973;921.8742;;;;
2019/11/23 07:06:17;;;;;;;4.3;2.5;;;;;;;4.75;79.67676;921.7952;;;;
2019/11/23 07:08:45;;;;;;;4.5;2.6;;;;;;;4.95;79.4209;921.7371;;;;
2019/11/23 07:11:16;;;;;;;4.1;3;;;;;;;5;78.38281;921.8832;;;;
2019/11/23 07:13:47;;;;;;;5.1;3.5;;;;;;;5.19;77.58203;921.7634;;;;
2019/11/23 07:16:36;;;;;;;9.6;6.2;;;;;;;5.16;77.61035;921.9802;;;;
2019/11/23 07:18:41;;;;;;;6;4.3;;;;;;;5.29;77.56641;921.8996;;;;
2019/11/23 07:21:13;;;;;;;6.8;3.5;;;;;;;5.52;76.86328;921.8419;;;;
2019/11/23 07:23:39;;;;;;;5.4;3.3;;;;;;;5.97;75.2959;921.7838;;;;
2019/11/23 07:26:11;;;;;;;5.8;3;;;;;;;5.89;75.01172;921.8459;;;;
2019/11/23 07:28:34;;;;;;;5.4;3.6;;;;;;;6.52;73.29785;921.6149;;;;
2019/11/23 07:31:01;;;;;;;5.6;3.1;;;;;;;7.32;70.40039;921.6831;;;;
2019/11/23 07:33:28;;;;;;;5.3;3.2;;;;;;;8.23;67.31152;921.8422;;;;
2019/11/23 07:36:07;;;;;;;4.1;2.8;;;;;;;9.58;63.10156;921.7268;;;;
2019/11/23 07:38:30;;;;;;;3.5;2.9;;;;;;;10.59;58.92188;921.6269;;;;
2019/11/23 07:40:55;;;;;;;4.5;2.7;;;;;;;11.34;56.31445;921.502;;;;
2019/11/23 07:43:26;;;;;;;7.2;3;;;;;;;11.06;55.91211;921.6539;;;;
2019/11/23 07:45:53;;;;;;;3.5;2.7;;;;;;;11.11;56.76367;921.5598;;;;
2019/11/23 07:48:13;;;;;;;3.7;2.8;;;;;;;10.38;57.3418;921.3929;;;;
2019/11/23 07:50:39;;;;;;;3.9;2.5;;;;;;;10.76;58.4082;921.4775;;;;
2019/11/23 07:53:06;;;;;;;4.6;3.2;;;;;;;11.01;56.54492;921.6262;;;;
2019/11/23 07:55:32;;;;;;;4.1;2.7;;;;;;;11.83;54.54395;921.5039;;;;
2019/11/23 07:58:01;;;;;;;4.3;2;;;;;;;12.26;51.70996;921.4314;;;;
2019/11/23 08:00:27;;;;;;;5.4;2.7;;;;;;;12.54;50.76855;921.4136;;;;
2019/11/23 08:02:52;;;;;;;4.2;2.5;;;;;;;12.62;49.88281;921.3287;;;;
2019/11/23 08:06:32;;;;;;;5.2;2.2;;;;;;;12.15;49.75977;921.4863;;;;
2019/11/23 08:08:02;;;;;;;2.8;2.2;;;;;;;11.82;52.83691;921.3167;;;;
2019/11/23 08:10:38;;;;;;;2.2;1.5;;;;;;;11.26;52.89551;921.4486;;;;
2019/11/23 08:13:03;;;;;;;2.3;1.1;;;;;;;11.48;53.21973;921.2213;;;;
2019/11/23 08:15:36;;;;;;;2.8;1.1;;;;;;;12.7;48.45801;921.25;;;;
2019/11/23 08:18:09;;;;;;;2.1;1.1;;;;;;;13.39;45.8457;921.1856;;;;
2019/11/23 08:20:29;;;;;;;2.9;1.2;;;;;;;14.08;43.61523;921.0765;;;;
2019/11/23 08:22:58;;;;;;;4.2;1;;;;;;;14.47;43.5625;920.9966;;;;
2019/11/23 08:25:35;;;;;;;1.8;0.7;;;;;;;14.98;41.45703;921.0991;;;;
2019/11/23 08:28:01;;;;;;;2.4;0.5;;;;;;;14.69;39.74609;921.0311;;;;
2019/11/23 08:30:31;;;;;;;0.9;0.2;;;;;;;15.29;37.5498;921.0845;;;;
2019/11/23 08:33:05;;;;;;;0.3;0.3;;;;;;;15.41;37.94043;921.1789;;;;
2019/11/23 08:35:38;;;;;;;6.2;0.6;;;;;;;15.4;38.27539;921.1392;;;;
2019/11/23 08:38:09;;;;;;;7.2;0.8;;;;;;;15.4;36.86621;921.139;;;;
2019/11/23 08:40:44;;;;;;;4.8;0.3;;;;;;;15.29;37.46875;921.2416;;;;
2019/11/23 08:43:07;;;;;;;0.4;0.2;;;;;;;15.56;36.72949;921.0604;;;;
2019/11/23 08:45:34;;;;;;;2.2;0.5;;;;;;;15.58;36.69629;921.1368;;;;
2019/11/23 08:48:07;;;;;;;3.5;0.5;;;;;;;15.76;35.20898;921.101;;;;
2019/11/23 08:50:35;;;;;;;1.6;0.4;;;;;;;15.85;36.93945;921.0007;;;;
2019/11/23 08:53:04;;;;;;;2.1;0.5;;;;;;;15.57;37.28516;921.0233;;;;
2019/11/23 08:55:32;;;;;;;2;0.6;;;;;;;15.58;36.45313;921.0422;;;;
2019/11/23 08:57:57;;;;;;;1.8;0.5;;;;;;;15.57;37.62012;920.9758;;;;
2019/11/23 09:00:21;;;;;;;2.5;1;;;;;;;15.67;37.44336;921.0691;;;;
2019/11/23 09:02:54;;;;;;;0.9;0.5;;;;;;;15.75;35.75195;921.0067;;;;
2019/11/23 09:05:20;;;;;;;1.3;0.7;;;;;;;15.95;37.09766;921.0681;;;;
2019/11/23 09:07:55;;;;;;;4;1;;;;;;;15.93;37.19922;921.0258;;;;
2019/11/23 09:12:38;;;;;;;1;0.2;;;;;;;16.12;34.08105;920.8684;;;;
2019/11/23 09:15:04;;;;;;;0.3;0.1;;;;;;;16.03;36.06348;920.9836;;;;
2019/11/23 09:17:29;;;;;;;0.2;0.1;;;;;;;16.11;35.9668;920.8815;;;;
2019/11/23 09:19:58;;;;;;;0.6;0.3;;;;;;;16.01;35.125;920.9785;;;;
2019/11/23 09:22:31;;;;;;;0.4;0.3;;;;;;;16.18;34.66504;920.9027;;;;
2019/11/23 09:24:58;;;;;;;1.1;0.3;;;;;;;16.38;35.05176;920.9118;;;;
2019/11/23 09:27:24;;;;;;;0.4;0.3;;;;;;;16.56;34.40527;920.9114;;;;
2019/11/23 09:29:50;;;;;;;0.9;0.1;;;;;;;16.71;34.64941;920.8423;;;;
2019/11/23 09:32:16;;;;;;;5.4;0.5;;;;;;;16.62;33.9707;920.6583;;;;
2019/11/23 09:34:49;;;;;;;1.7;0.4;;;;;;;16.48;35.07129;920.6437;;;;
2019/11/23 09:37:32;;;;;;;1.3;0.3;;;;;;;16.41;34.12793;920.6827;;;;
2019/11/23 09:40:01;;;;;;;0.1;0.1;;;;;;;16.48;33.83203;920.7715;;;;
2019/11/23 09:42:35;;;;;;;0.4;0.2;;;;;;;16.38;34.37988;920.5425;;;;
2019/11/23 09:45:02;;;;;;;2.5;0.2;;;;;;;16.57;33.75781;920.5903;;;;
2019/11/23 09:47:32;;;;;;;0.5;0.3;;;;;;;16.64;34.43555;920.5112;;;;
2019/11/23 09:49:57;;;;;;;0.6;0.2;;;;;;;16.73;33.5498;920.4741;;;;
2019/11/23 09:52:28;;;;;;;1.7;0.5;;;;;;;16.79;35.00391;920.4496;;;;
2019/11/23 09:55:00;;;;;;;1.2;0.4;;;;;;;16.72;34.02441;920.2888;;;;
2019/11/23 09:57:30;;;;;;;1.8;0.5;;;;;;;16.87;33.9668;920.2456;;;;
2019/11/23 09:59:58;;;;;;;1;0.4;;;;;;;16.95;33.11523;920.3693;;;;
2019/11/23 10:02:31;;;;;;;2.6;0.6;;;;;;;17.09;32.80176;920.0173;;;;
2019/11/23 10:05:03;;;;;;;0.9;0.3;;;;;;;16.87;33.74707;920.2519;;;;
2019/11/23 10:07:33;;;;;;;0.5;0.4;;;;;;;16.94;33.16016;920.2234;;;;
2019/11/23 10:09:57;;;;;;;1;0.2;;;;;;;17.11;32.37402;920.0681;;;;
2019/11/23 10:13:12;;;;;;;0.1;0.1;;;;;;;17.31;32.35352;920.1647;;;;
2019/11/23 10:15:47;;;;;;;0.9;0.4;;;;;;;17.27;33.33691;920.1808;;;;
2019/11/23 10:18:24;;;;;;;0.4;0.2;;;;;;;17.52;31.83496;920.186;;;;
2019/11/23 10:21:07;;;;;;;0.6;0.2;;;;;;;17.7;31.29102;920.0254;;;;
2019/11/23 10:23:11;;;;;;;1.6;0.4;;;;;;;17.77;32.10938;920.0108;;;;
2019/11/23 10:25:45;;;;;;;0.9;0.2;;;;;;;17.62;31.86523;919.7823;;;;
2019/11/23 10:28:09;;;;;;;0.3;0.1;;;;;;;17.66;31.70605;920.0528;;;;
2019/11/23 10:30:42;;;;;;;0.2;0.1;;;;;;;17.73;30.67871;919.957;;;;
2019/11/23 10:33:00;;;;;;;0.3;0.2;;;;;;;17.66;32.32129;919.9182;;;;
2019/11/23 10:35:35;;;;;;;0.1;0.1;;;;;;;17.82;30.76563;919.8248;;;;
2019/11/23 10:38:05;;;;;;;0.7;0.3;;;;;;;17.75;32.28125;919.7732;;;;
2019/11/23 10:40:52;;;;;;;1.7;0.3;;;;;;;17.98;31.55469;919.9519;;;;
2019/11/23 10:43:07;;;;;;;1.3;0.3;;;;;;;18.02;31.40723;919.9604;;;;
2019/11/23 10:45:35;;;;;;;0.9;0.3;;;;;;;17.87;31.30371;919.9669;;;;
2019/11/23 10:48:03;;;;;;;1.1;0.2;;;;;;;17.89;31.14258;919.9543;;;;
2019/11/23 10:51:15;;;;;;;1.9;0.3;;;;;;;17.92;31.45801;919.8894;;;;
2019/11/23 10:53:35;;;;;;;0.3;0.2;;;;;;;17.82;31.3584;919.9369;;;;
2019/11/23 10:56:01;;;;;;;1.1;0.2;;;;;;;17.93;30.84375;919.8943;;;;
2019/11/23 10:58:30;;;;;;;1.3;0.2;;;;;;;17.83;31.92676;919.8931;;;;
2019/11/23 11:00:56;;;;;;;1.7;0.2;;;;;;;18.02;30.6875;920.0626;;;;
2019/11/23 11:03:27;;;;;;;0.7;0.2;;;;;;;18.05;32.19922;920.1353;;;;
2019/11/23 11:05:49;;;;;;;0.3;0.3;;;;;;;17.81;31.74023;920.1714;;;;
2019/11/23 11:08:19;;;;;;;3.3;0.5;;;;;;;17.7;31.95313;920.248;;;;
2019/11/23 11:10:45;;;;;;;3.3;0.3;;;;;;;17.72;31.59473;920.0812;;;;
2019/11/23 11:13:12;;;;;;;2.6;0.3;;;;;;;17.47;33.29395;919.9966;;;;
2019/11/23 11:15:38;;;;;;;1.2;0.3;;;;;;;17.56;32.0127;920.0625;;;;
2019/11/23 11:18:27;;;;;;;1.1;0.2;;;;;;;17.65;31.76367;920.0748;;;;
2019/11/23 11:21:00;;;;;;;0.5;0.2;;;;;;;17.75;31.27246;920.1394;;;;
2019/11/23 11:23:24;;;;;;;1.9;0.4;;;;;;;17.93;30.80859;920.1827;;;;
2019/11/23 11:27:37;;;;;;;0.6;0.3;;;;;;;17.9;31.1543;920.1786;;;;
2019/11/23 11:30:10;;;;;;;0.3;0.2;;;;;;;17.82;31.86914;920.1035;;;;
2019/11/23 11:32:49;;;;;;;0.7;0.2;;;;;;;17.87;31.31543;920.1138;;;;
2019/11/23 11:35:16;;;;;;;1.8;0.3;;;;;;;17.82;31.86914;920.0712;;;;
2019/11/23 11:37:35;;;;;;;0.8;0.2;;;;;;;17.96;31.60059;920.1258;;;;
2019/11/23 11:40:10;;;;;;;1.5;0.5;;;;;;;17.98;31.17188;920.1281;;;;
2019/11/23 11:43:13;;;;;;;1.7;0.2;;;;;;;17.94;30.75098;920.1664;;;;
2019/11/23 11:45:37;;;;;;;1.8;0.2;;;;;;;17.83;31.25391;920.2029;;;;
2019/11/23 11:48:04;;;;;;;1.7;0.5;;;;;;;17.81;30.96289;920.2067;;;;
2019/11/23 11:50:33;;;;;;;0.6;0.5;;;;;;;17.77;30.95996;920.024;;;;
2019/11/23 11:53:03;;;;;;;1.1;0.3;;;;;;;17.77;31.20313;919.9963;;;;
2019/11/23 11:55:30;;;;;;;1.9;0.5;;;;;;;17.8;31.26367;920.0019;;;;
2019/11/23 11:58:06;;;;;;;1.1;0.3;;;;;;;17.74;31.42188;920.0023;;;;
2019/11/23 12:00:25;;;;;;;0.2;0.1;;;;;;;17.69;31.73242;919.892;;;;
2019/11/23 12:03:23;;;;;;;1.8;0.2;;;;;;;17.78;31.35547;919.9772;;;;
2019/11/23 12:06:06;;;;;;;0.8;0.3;;;;;;;17.62;32.02832;920.0735;;;;
2019/11/23 12:08:31;;;;;;;0.5;0.2;;;;;;;17.83;32.33398;919.9953;;;;
2019/11/23 12:10:58;;;;;;;2.2;0.6;;;;;;;17.86;31.54688;919.9874;;;;
2019/11/23 12:13:34;;;;;;;2.2;0.6;;;;;;;17.94;31.94727;919.9416;;;;
2019/11/23 12:16:13;;;;;;;0.7;0.3;;;;;;;17.78;31.65723;919.9447;;;;
2019/11/23 12:18:35;;;;;;;1.8;1.6;;;;;;;17.81;32.36719;919.9564;;;;
2019/11/23 12:21:08;;;;;;;1.7;0.5;;;;;;;17.73;31.35254;920.0051;;;;
2019/11/23 12:23:48;;;;;;;1.6;0.5;;;;;;;17.82;31.46289;919.9503;;;;
2019/11/23 12:26:14;;;;;;;0.8;0.4;;;;;;;17.82;31.625;920.0438;;;;
2019/11/23 12:28:38;;;;;;;2.4;0.6;;;;;;;17.81;31.2998;920.0037;;;;
2019/11/23 12:31:07;;;;;;;1.3;0.6;;;;;;;17.84;31.73145;920.1266;;;;
2019/11/23 12:33:31;;;;;;;1.1;0.4;;;;;;;17.81;31.63574;920.0507;;;;
2019/11/23 12:36:05;;;;;;;1.6;0.3;;;;;;;17.73;31.53711;920.1383;;;;
2019/11/23 12:38:39;;;;;;;0.9;0.5;;;;;;;17.7;32.92871;920.0436;;;;
2019/11/23 12:41:09;;;;;;;2.1;0.4;;;;;;;17.75;31.46875;919.9889;;;;
2019/11/23 12:43:41;;;;;;;1.8;0.7;;;;;;;17.81;31.82227;920.0555;;;;
2019/11/23 12:46:03;;;;;;;0.9;0.4;;;;;;;17.78;32.57422;919.8716;;;;
2019/11/23 12:48:36;;;;;;;1.1;0.4;;;;;;;17.75;32.03809;919.91;;;;
2019/11/23 12:51:09;;;;;;;2.3;0.4;;;;;;;17.86;31.68555;919.8586;;;;
2019/11/23 12:53:38;;;;;;;1.3;0.4;;;;;;;17.83;32.29883;919.9012;;;;
2019/11/23 12:56:00;;;;;;;1.9;0.4;;;;;;;17.73;31.65332;919.8304;;;;
2019/11/23 12:58:32;;;;;;;1.8;0.4;;;;;;;17.67;31.9043;919.8981;;;;
2019/11/23 13:01:12;;;;;;;0.3;0.3;;;;;;;17.68;31.83496;919.8831;;;;
2019/11/23 13:03:35;;;;;;;2.2;0.6;;;;;;;17.67;31.62598;919.8019;;;;
2019/11/23 13:06:12;;;;;;;0.8;0.2;;;;;;;17.67;31.73047;919.8692;;;;
2019/11/23 13:08:37;;;;;;;0.5;0.3;;;;;;;17.61;32.96777;919.916;;;;
2019/11/23 13:11:06;;;;;;;1;0.3;;;;;;;17.53;32.14941;919.8258;;;;
2019/11/23 13:13:32;;;;;;;0.5;0.2;;;;;;;17.61;31.92383;919.7729;;;;
2019/11/23 13:16:16;;;;;;;2.2;0.3;;;;;;;17.47;32.43555;919.8752;;;;
2019/11/23 13:18:48;;;;;;;1.9;0.3;;;;;;;17.49;31.87988;919.7536;;;;
2019/11/23 13:21:20;;;;;;;0.6;0.4;;;;;;;17.57;33.31348;919.7102;;;;
2019/11/23 13:23:44;;;;;;;0.9;0.4;;;;;;;17.44;32.22461;919.7203;;;;
2019/11/23 13:26:16;;;;;;;1.4;0.2;;;;;;;17.43;33.11719;919.8045;;;;
2019/11/23 13:28:46;;;;;;;2.8;0.4;;;;;;;17.33;32.78516;919.6208;;;;
2019/11/23 13:31:10;;;;;;;1;0.3;;;;;;;17.32;32.62109;919.7999;;;;
2019/11/23 13:36:19;;;;;;;3.6;0.4;;;;;;;17.33;32.54102;919.7625;;;;
2019/11/23 13:38:47;;;;;;;1.1;0.3;;;;;;;17.35;32.89063;919.6592;;;;
2019/11/23 13:41:13;;;;;;;1.4;0.2;;;;;;;17.24;33.4502;919.7472;;;;
2019/11/23 13:43:42;;;;;;;1;0.4;;;;;;;17.31;32.16797;919.6588;;;;
2019/11/23 13:46:23;;;;;;;0.5;0.3;;;;;;;17.34;32.59961;919.7086;;;;
2019/11/23 13:49:17;;;;;;;0.8;0.5;;;;;;;17.22;34.0752;919.6813;;;;
2019/11/23 13:51:45;;;;;;;1.3;0.4;;;;;;;17.07;33.51855;919.8326;;;;
2019/11/23 13:54:11;;;;;;;0.6;0.2;;;;;;;17.08;32.53418;919.8152;;;;
2019/11/23 13:56:42;;;;;;;1.9;0.3;;;;;;;17.01;33.38574;919.6412;;;;
2019/11/23 13:59:06;;;;;;;1.5;0.4;;;;;;;17.13;32.75781;919.7642;;;;
2019/11/23 14:01:29;;;;;;;1.5;0.3;;;;;;;17.21;32.90234;919.6744;;;;
2019/11/23 14:04:03;;;;;;;0.7;0.2;;;;;;;17.15;32.84082;919.8131;;;;
2019/11/23 14:06:28;;;;;;;1.8;0.4;;;;;;;17.13;33.31445;919.7977;;;;
2019/11/23 14:08:57;;;;;;;0.9;0.3;;;;;;;17.13;33.60352;919.7336;;;;
2019/11/23 14:11:24;;;;;;;3.9;0.4;;;;;;;16.97;33.52246;919.704;;;;
2019/11/23 14:13:53;;;;;;;2.2;0.4;;;;;;;16.92;33.17188;919.7546;;;;
2019/11/23 14:16:26;;;;;;;3.3;0.5;;;;;;;16.92;33.35645;919.6861;;;;
2019/11/23 14:18:51;;;;;;;2.6;0.5;;;;;;;16.97;33.65039;919.7885;;;;
2019/11/23 14:21:22;;;;;;;1.1;0.5;;;;;;;17.06;32.77539;919.8348;;;;
2019/11/23 14:23:55;;;;;;;1.8;0.5;;;;;;;17.11;32.92969;919.8777;;;;
2019/11/23 14:26:20;;;;;;;1.8;0.4;;;;;;;17.11;33.63672;919.867;;;;
2019/11/23 14:28:41;;;;;;;2;0.6;;;;;;;17.04;33.57324;919.7963;;;;
2019/11/23 14:31:09;;;;;;;2;0.5;;;;;;;16.96;33.40625;919.9088;;;;
2019/11/23 14:33:33;;;;;;;2.3;0.4;;;;;;;16.92;32.82324;919.8375;;;;
2019/11/23 14:36:11;;;;;;;2.4;0.6;;;;;;;16.83;33.8125;919.8687;;;;
2019/11/23 14:38:44;;;;;;;1.2;0.4;;;;;;;16.96;33.41797;919.8942;;;;
2019/11/23 14:41:06;;;;;;;0.5;0.3;;;;;;;16.99;33.1875;920.0064;;;;
2019/11/23 14:43:30;;;;;;;1.3;0.6;;;;;;;16.64;35.24512;919.9328;;;;
2019/11/23 14:45:58;;;;;;;2.3;0.7;;;;;;;16.41;35.89844;919.9813;;;;
2019/11/23 14:48:25;;;;;;;0.8;0.4;;;;;;;16.54;34.01074;920.0083;;;;
2019/11/23 14:50:57;;;;;;;2.6;0.4;;;;;;;16.68;33.52344;919.9578;;;;
2019/11/23 14:53:24;;;;;;;1.6;0.4;;;;;;;16.84;33.70996;919.9373;;;;
2019/11/23 14:55:53;;;;;;;1.7;0.4;;;;;;;16.98;32.79297;919.8887;;;;
2019/11/23 14:58:19;;;;;;;25.1;2.1;;;;;;;17.13;33.12891;920.0608;;;;
2019/11/23 15:00:43;;;;;;;1.4;0.3;;;;;;;17.03;32.66895;920.0219;;;;
2019/11/23 15:03:13;;;;;;;1.5;0.6;;;;;;;16.72;34.20996;920.0645;;;;
2019/11/23 15:05:39;;;;;;;0.9;0.5;;;;;;;16.83;33.56934;920.0471;;;;
2019/11/23 15:08:07;;;;;;;0.8;0.5;;;;;;;16.97;33.20898;920.1096;;;;
2019/11/23 15:10:32;;;;;;;3.3;0.8;;;;;;;17.03;32.86621;920.1063;;;;
2019/11/23 15:13:03;;;;;;;2;0.6;;;;;;;16.95;32.80273;920.1649;;;;
2019/11/23 15:15:27;;;;;;;1.8;0.8;;;;;;;16.85;33.13086;920.2314;;;;
2019/11/23 15:17:52;;;;;;;1.9;0.6;;;;;;;16.86;33.1084;920.2757;;;;
2019/11/23 15:20:19;;;;;;;2.1;0.9;;;;;;;16.51;35.36328;920.2809;;;;
2019/11/23 15:22:44;;;;;;;2.7;0.7;;;;;;;16.24;36.09277;920.1998;;;;
2019/11/23 15:25:11;;;;;;;2.8;0.8;;;;;;;16.31;35.88965;920.307;;;;
2019/11/23 15:27:35;;;;;;;2.9;1.1;;;;;;;16.41;35.63184;920.3122;;;;
2019/11/23 15:30:07;;;;;;;6.1;1.8;;;;;;;16.54;36.04785;920.3868;;;;
2019/11/23 15:32:38;;;;;;;4.9;2.2;;;;;;;16.4;36.82324;920.4386;;;;
2019/11/23 15:35:10;;;;;;;6;2.4;;;;;;;16.5;37.85059;920.4686;;;;
2019/11/23 15:37:34;;;;;;;5.2;2.4;;;;;;;16.48;37.45508;920.4255;;;;
2019/11/23 15:39:59;;;;;;;8;3;;;;;;;16.27;37.61035;920.4675;;;;
2019/11/23 15:42:27;;;;;;;7.6;4.1;;;;;;;16.09;36.2998;920.4875;;;;
2019/11/23 15:44:54;;;;;;;6.4;3.4;;;;;;;16.24;37.44629;920.5706;;;;
2019/11/23 15:47:28;;;;;;;5;2.7;;;;;;;16.32;37.52148;920.5925;;;;
2019/11/23 15:50:18;;;;;;;2.4;1;;;;;;;16.07;36.75977;920.6425;;;;
2019/11/23 15:52:52;;;;;;;3.1;1.6;;;;;;;15.9;36.85156;920.57;;;;
2019/11/23 15:55:26;;;;;;;3.5;1.2;;;;;;;15.75;38.49023;920.6625;;;;
2019/11/23 15:57:56;;;;;;;2.8;0.6;;;;;;;15.55;38.53125;920.6163;;;;
2019/11/23 16:00:26;;;;;;;1.2;0.6;;;;;;;15.64;37.68359;920.7106;;;;
2019/11/23 16:02:54;;;;;;;2.6;1.2;;;;;;;15.84;37.00684;920.6127;;;;
2019/11/23 16:05:19;;;;;;;2.7;0.9;;;;;;;15.93;37.41992;920.7152;;;;
2019/11/23 16:07:46;;;;;;;2.8;1.5;;;;;;;15.89;37.53125;920.7898;;;;
2019/11/23 16:10:13;;;;;;;2.2;1.1;;;;;;;15.88;36.84863;920.7115;;;;